sensor_id;sensor_type;location;lat;lon;timestamp;temperature;humidity
46490;DHT22;32204;49.160;8.580;2022-11-11T00:00:36;8.20;99.90
46490;DHT22;32204;49.160;8.580;2022-11-11T00:03:02;8.20;94.60
46490;DHT22;32204;49.160;8.580;2022-11-11T00:05:28;8.10;72.30
46490;DHT22;32204;49.160;8.580;2022-11-11T00:07:55;8.10;97.10
46490;DHT22;32204;49.160;8.580;2022-11-11T00:10:25;8.10;99.90
46490;DHT22;32204;49.160;8.580;2022-11-11T00:12:51;8.10;99.90
46490;DHT22;32204;49.160;8.580;2022-11-11T00:15:16;8.00;91.10
46490;DHT22;32204;49.160;8.580;2022-11-11T00:17:42;8.10;96.80
46490;DHT22;32204;49.160;8.580;2022-11-11T00:20:26;8.10;82.30
46490;DHT22;32204;49.160;8.580;2022-11-11T00:23:22;8.20;82.20
46490;DHT22;32204;49.160;8.580;2022-11-11T00:26:07;8.10;70.90
46490;DHT22;32204;49.160;8.580;2022-11-11T00:28:33;8.20;96.00
46490;DHT22;32204;49.160;8.580;2022-11-11T00:31:09;8.20;99.90
46490;DHT22;32204;49.160;8.580;2022-11-11T00:33:35;8.10;99.90
46490;DHT22;32204;49.160;8.580;2022-11-11T00:36:01;8.10;99.90
46490;DHT22;32204;49.160;8.580;2022-11-11T00:38:27;8.00;99.90
46490;DHT22;32204;49.160;8.580;2022-11-11T00:41:16;8.00;99.90
46490;DHT22;32204;49.160;8.580;2022-11-11T00:43:43;7.90;90.90
46490;DHT22;32204;49.160;8.580;2022-11-11T00:46:09;7.90;56.60
46490;DHT22;32204;49.160;8.580;2022-11-11T00:48:54;7.90;47.10
46490;DHT22;32204;49.160;8.580;2022-11-11T00:51:39;7.90;70.40
46490;DHT22;32204;49.160;8.580;2022-11-11T00:54:05;7.80;99.90
46490;DHT22;32204;49.160;8.580;2022-11-11T00:56:31;7.70;99.90
46490;DHT22;32204;49.160;8.580;2022-11-11T00:58:56;7.80;99.90
46490;DHT22;32204;49.160;8.580;2022-11-11T01:01:22;7.80;99.90
46490;DHT22;32204;49.160;8.580;2022-11-11T01:03:48;7.80;86.60
46490;DHT22;32204;49.160;8.580;2022-11-11T01:06:13;7.70;65.10
46490;DHT22;32204;49.160;8.580;2022-11-11T01:08:39;7.70;99.90
46490;DHT22;32204;49.160;8.580;2022-11-11T01:11:18;7.40;99.90
46490;DHT22;32204;49.160;8.580;2022-11-11T01:13:44;7.20;99.90
46490;DHT22;32204;49.160;8.580;2022-11-11T01:16:15;7.20;99.90
46490;DHT22;32204;49.160;8.580;2022-11-11T01:18:41;7.20;99.90
46490;DHT22;32204;49.160;8.580;2022-11-11T01:21:13;7.30;99.90
46490;DHT22;32204;49.160;8.580;2022-11-11T01:23:41;7.40;99.90
46490;DHT22;32204;49.160;8.580;2022-11-11T01:26:12;7.50;99.90
46490;DHT22;32204;49.160;8.580;2022-11-11T01:28:38;7.50;99.90
46490;DHT22;32204;49.160;8.580;2022-11-11T01:31:05;7.60;99.90
46490;DHT22;32204;49.160;8.580;2022-11-11T01:33:32;7.60;99.90
46490;DHT22;32204;49.160;8.580;2022-11-11T01:36:15;7.50;99.90
46490;DHT22;32204;49.160;8.580;2022-11-11T01:38:42;7.50;99.90
46490;DHT22;32204;49.160;8.580;2022-11-11T01:41:11;7.60;99.90
46490;DHT22;32204;49.160;8.580;2022-11-11T01:46:36;7.50;99.90
46490;DHT22;32204;49.160;8.580;2022-11-11T01:54:39;7.70;99.90
46490;DHT22;32204;49.160;8.580;2022-11-11T01:57:23;7.70;99.90
46490;DHT22;32204;49.160;8.580;2022-11-11T01:59:54;7.60;99.90
46490;DHT22;32204;49.160;8.580;2022-11-11T02:02:38;7.70;99.90
46490;DHT22;32204;49.160;8.580;2022-11-11T02:05:08;7.60;99.90
46490;DHT22;32204;49.160;8.580;2022-11-11T02:07:53;7.40;99.90
46490;DHT22;32204;49.160;8.580;2022-11-11T02:10:23;7.40;99.90
46490;DHT22;32204;49.160;8.580;2022-11-11T02:12:49;7.30;99.90
46490;DHT22;32204;49.160;8.580;2022-11-11T02:15:35;7.30;99.90
46490;DHT22;32204;49.160;8.580;2022-11-11T02:18:02;7.30;99.90
46490;DHT22;32204;49.160;8.580;2022-11-11T02:20:32;7.20;99.90
46490;DHT22;32204;49.160;8.580;2022-11-11T02:23:13;7.20;99.90
46490;DHT22;32204;49.160;8.580;2022-11-11T02:25:42;7.30;99.90
46490;DHT22;32204;49.160;8.580;2022-11-11T02:28:09;7.30;99.90
46490;DHT22;32204;49.160;8.580;2022-11-11T02:30:36;7.40;99.90
46490;DHT22;32204;49.160;8.580;2022-11-11T02:33:02;7.40;99.90
46490;DHT22;32204;49.160;8.580;2022-11-11T02:35:33;7.40;99.90
46490;DHT22;32204;49.160;8.580;2022-11-11T02:38:00;7.40;99.90
46490;DHT22;32204;49.160;8.580;2022-11-11T02:40:40;7.50;99.90
46490;DHT22;32204;49.160;8.580;2022-11-11T02:43:25;7.40;99.90
46490;DHT22;32204;49.160;8.580;2022-11-11T02:45:51;7.40;99.90
46490;DHT22;32204;49.160;8.580;2022-11-11T02:48:17;7.50;99.90
46490;DHT22;32204;49.160;8.580;2022-11-11T02:50:43;7.60;99.90
46490;DHT22;32204;49.160;8.580;2022-11-11T02:53:08;7.50;97.70
46490;DHT22;32204;49.160;8.580;2022-11-11T02:55:34;7.50;99.90
46490;DHT22;32204;49.160;8.580;2022-11-11T02:58:00;7.50;59.40
46490;DHT22;32204;49.160;8.580;2022-11-11T03:00:26;7.40;17.10
46490;DHT22;32204;49.160;8.580;2022-11-11T03:02:51;7.30;2.20
46490;DHT22;32204;49.160;8.580;2022-11-11T03:05:17;7.10;1.00
46490;DHT22;32204;49.160;8.580;2022-11-11T03:07:42;7.10;1.10
46490;DHT22;32204;49.160;8.580;2022-11-11T03:10:08;7.10;13.50
46490;DHT22;32204;49.160;8.580;2022-11-11T03:12:34;7.00;1.00
46490;DHT22;32204;49.160;8.580;2022-11-11T03:15:00;6.90;1.00
46490;DHT22;32204;49.160;8.580;2022-11-11T03:17:26;7.00;27.30
46490;DHT22;32204;49.160;8.580;2022-11-11T03:20:05;7.00;27.90
46490;DHT22;32204;49.160;8.580;2022-11-11T03:23:09;7.10;19.10
46490;DHT22;32204;49.160;8.580;2022-11-11T03:25:43;7.10;30.00
46490;DHT22;32204;49.160;8.580;2022-11-11T03:28:17;7.10;1.00
46490;DHT22;32204;49.160;8.580;2022-11-11T03:30:45;6.90;1.00
46490;DHT22;32204;49.160;8.580;2022-11-11T03:33:11;6.80;1.00
46490;DHT22;32204;49.160;8.580;2022-11-11T03:35:37;6.80;39.00
46490;DHT22;32204;49.160;8.580;2022-11-11T03:38:05;6.80;20.90
46490;DHT22;32204;49.160;8.580;2022-11-11T03:40:50;6.80;1.00
46490;DHT22;32204;49.160;8.580;2022-11-11T03:43:17;6.70;7.70
46490;DHT22;32204;49.160;8.580;2022-11-11T03:45:43;6.70;53.20
46490;DHT22;32204;49.160;8.580;2022-11-11T03:48:10;6.80;64.60
46490;DHT22;32204;49.160;8.580;2022-11-11T03:50:36;6.70;8.50
46490;DHT22;32204;49.160;8.580;2022-11-11T03:53:02;6.60;26.60
46490;DHT22;32204;49.160;8.580;2022-11-11T03:55:28;6.60;53.60
46490;DHT22;32204;49.160;8.580;2022-11-11T03:57:54;6.60;99.90
46490;DHT22;32204;49.160;8.580;2022-11-11T04:00:24;6.60;48.80
46490;DHT22;32204;49.160;8.580;2022-11-11T04:02:50;6.50;65.20
46490;DHT22;32204;49.160;8.580;2022-11-11T04:05:35;6.60;99.90
46490;DHT22;32204;49.160;8.580;2022-11-11T04:08:20;6.70;96.40
46490;DHT22;32204;49.160;8.580;2022-11-11T04:11:21;6.90;99.90
46490;DHT22;32204;49.160;8.580;2022-11-11T04:13:49;7.00;97.00
46490;DHT22;32204;49.160;8.580;2022-11-11T04:16:33;6.90;36.40
46490;DHT22;32204;49.160;8.580;2022-11-11T04:18:59;7.00;37.40
46490;DHT22;32204;49.160;8.580;2022-11-11T04:21:43;7.10;69.70
46490;DHT22;32204;49.160;8.580;2022-11-11T04:26:55;7.00;32.80
46490;DHT22;32204;49.160;8.580;2022-11-11T04:29:21;6.90;56.70
46490;DHT22;32204;49.160;8.580;2022-11-11T04:32:17;6.90;52.60
46490;DHT22;32204;49.160;8.580;2022-11-11T04:35:11;6.90;81.10
46490;DHT22;32204;49.160;8.580;2022-11-11T04:37:47;7.00;76.60
46490;DHT22;32204;49.160;8.580;2022-11-11T04:40:17;6.90;34.50
46490;DHT22;32204;49.160;8.580;2022-11-11T04:43:01;6.90;47.40
46490;DHT22;32204;49.160;8.580;2022-11-11T04:45:26;7.00;96.40
46490;DHT22;32204;49.160;8.580;2022-11-11T04:50:23;7.20;88.70
46490;DHT22;32204;49.160;8.580;2022-11-11T04:52:49;7.30;64.10
46490;DHT22;32204;49.160;8.580;2022-11-11T04:55:15;7.30;57.70
46490;DHT22;32204;49.160;8.580;2022-11-11T04:57:59;7.40;40.40
46490;DHT22;32204;49.160;8.580;2022-11-11T05:00:25;7.30;12.20
46490;DHT22;32204;49.160;8.580;2022-11-11T05:02:55;7.20;26.00
46490;DHT22;32204;49.160;8.580;2022-11-11T05:05:43;7.10;1.00
46490;DHT22;32204;49.160;8.580;2022-11-11T05:08:28;6.90;18.70
46490;DHT22;32204;49.160;8.580;2022-11-11T05:11:12;6.80;39.40
46490;DHT22;32204;49.160;8.580;2022-11-11T05:13:38;6.80;79.00
46490;DHT22;32204;49.160;8.580;2022-11-11T05:16:24;6.80;53.80
46490;DHT22;32204;49.160;8.580;2022-11-11T05:19:11;6.80;99.90
46490;DHT22;32204;49.160;8.580;2022-11-11T05:21:59;7.00;99.90
46490;DHT22;32204;49.160;8.580;2022-11-11T05:24:27;7.20;99.40
46490;DHT22;32204;49.160;8.580;2022-11-11T05:27:11;7.20;83.70
46490;DHT22;32204;49.160;8.580;2022-11-11T05:29:37;7.30;94.30
46490;DHT22;32204;49.160;8.580;2022-11-11T05:32:03;7.30;34.90
46490;DHT22;32204;49.160;8.580;2022-11-11T05:34:31;7.20;59.40
46490;DHT22;32204;49.160;8.580;2022-11-11T05:36:57;7.30;97.50
46490;DHT22;32204;49.160;8.580;2022-11-11T05:39:22;7.40;99.90
46490;DHT22;32204;49.160;8.580;2022-11-11T05:41:49;7.50;99.90
46490;DHT22;32204;49.160;8.580;2022-11-11T05:44:14;7.50;99.90
46490;DHT22;32204;49.160;8.580;2022-11-11T05:46:40;7.50;99.90
46490;DHT22;32204;49.160;8.580;2022-11-11T05:49:06;7.50;99.90
46490;DHT22;32204;49.160;8.580;2022-11-11T05:51:41;7.60;99.90
46490;DHT22;32204;49.160;8.580;2022-11-11T05:54:06;7.50;99.90
46490;DHT22;32204;49.160;8.580;2022-11-11T05:56:32;7.40;99.90
46490;DHT22;32204;49.160;8.580;2022-11-11T05:58:58;7.40;99.90
46490;DHT22;32204;49.160;8.580;2022-11-11T06:01:23;7.40;99.90
46490;DHT22;32204;49.160;8.580;2022-11-11T06:03:49;7.40;99.90
46490;DHT22;32204;49.160;8.580;2022-11-11T06:06:15;7.50;99.90
46490;DHT22;32204;49.160;8.580;2022-11-11T06:08:40;7.60;99.90
46490;DHT22;32204;49.160;8.580;2022-11-11T06:11:07;7.70;99.90
46490;DHT22;32204;49.160;8.580;2022-11-11T06:13:32;7.70;99.90
46490;DHT22;32204;49.160;8.580;2022-11-11T06:15:59;7.70;99.90
46490;DHT22;32204;49.160;8.580;2022-11-11T06:18:25;7.90;99.90
46490;DHT22;32204;49.160;8.580;2022-11-11T06:20:57;7.90;99.90
46490;DHT22;32204;49.160;8.580;2022-11-11T06:23:24;8.00;99.90
46490;DHT22;32204;49.160;8.580;2022-11-11T06:25:50;8.00;99.90
46490;DHT22;32204;49.160;8.580;2022-11-11T06:28:35;8.00;99.90
46490;DHT22;32204;49.160;8.580;2022-11-11T06:31:01;8.10;99.90
46490;DHT22;32204;49.160;8.580;2022-11-11T06:33:27;8.10;99.90
46490;DHT22;32204;49.160;8.580;2022-11-11T06:35:53;8.10;99.90
46490;DHT22;32204;49.160;8.580;2022-11-11T06:38:19;8.10;99.90
46490;DHT22;32204;49.160;8.580;2022-11-11T06:40:45;8.10;99.90
46490;DHT22;32204;49.160;8.580;2022-11-11T06:43:11;8.20;99.90
46490;DHT22;32204;49.160;8.580;2022-11-11T06:45:37;8.20;99.90
46490;DHT22;32204;49.160;8.580;2022-11-11T06:48:03;8.20;99.90
46490;DHT22;32204;49.160;8.580;2022-11-11T06:50:32;8.20;99.90
46490;DHT22;32204;49.160;8.580;2022-11-11T06:53:08;8.20;99.90
46490;DHT22;32204;49.160;8.580;2022-11-11T06:55:35;8.30;99.90
46490;DHT22;32204;49.160;8.580;2022-11-11T07:00:35;8.30;99.90
46490;DHT22;32204;49.160;8.580;2022-11-11T07:03:06;8.40;99.90
46490;DHT22;32204;49.160;8.580;2022-11-11T07:05:33;8.40;99.90
46490;DHT22;32204;49.160;8.580;2022-11-11T07:08:10;8.30;99.90
46490;DHT22;32204;49.160;8.580;2022-11-11T07:10:38;8.30;99.90
46490;DHT22;32204;49.160;8.580;2022-11-11T07:13:07;8.30;99.90
46490;DHT22;32204;49.160;8.580;2022-11-11T07:15:33;8.40;99.90
46490;DHT22;32204;49.160;8.580;2022-11-11T07:17:59;8.40;99.90
46490;DHT22;32204;49.160;8.580;2022-11-11T07:20:25;8.30;99.90
46490;DHT22;32204;49.160;8.580;2022-11-11T07:22:51;8.40;99.90
46490;DHT22;32204;49.160;8.580;2022-11-11T07:25:17;8.40;99.90
46490;DHT22;32204;49.160;8.580;2022-11-11T07:27:43;8.40;99.90
46490;DHT22;32204;49.160;8.580;2022-11-11T07:30:10;8.20;99.90
46490;DHT22;32204;49.160;8.580;2022-11-11T07:32:36;8.20;99.90
46490;DHT22;32204;49.160;8.580;2022-11-11T07:35:03;8.00;99.90
46490;DHT22;32204;49.160;8.580;2022-11-11T07:37:30;8.00;99.90
46490;DHT22;32204;49.160;8.580;2022-11-11T07:39:56;8.00;99.90
46490;DHT22;32204;49.160;8.580;2022-11-11T07:42:21;7.80;99.90
46490;DHT22;32204;49.160;8.580;2022-11-11T07:44:47;7.70;99.90
46490;DHT22;32204;49.160;8.580;2022-11-11T07:47:12;7.60;99.90
46490;DHT22;32204;49.160;8.580;2022-11-11T07:49:38;7.60;99.90
46490;DHT22;32204;49.160;8.580;2022-11-11T07:52:04;7.60;99.90
46490;DHT22;32204;49.160;8.580;2022-11-11T07:54:29;7.60;99.90
46490;DHT22;32204;49.160;8.580;2022-11-11T07:56:55;7.60;99.90
46490;DHT22;32204;49.160;8.580;2022-11-11T07:59:21;7.60;99.90
46490;DHT22;32204;49.160;8.580;2022-11-11T08:01:46;7.60;99.90
46490;DHT22;32204;49.160;8.580;2022-11-11T08:04:12;7.60;99.90
46490;DHT22;32204;49.160;8.580;2022-11-11T08:06:38;7.60;99.90
46490;DHT22;32204;49.160;8.580;2022-11-11T08:09:03;7.60;99.90
46490;DHT22;32204;49.160;8.580;2022-11-11T08:11:29;7.80;99.90
46490;DHT22;32204;49.160;8.580;2022-11-11T08:14:13;8.00;99.90
46490;DHT22;32204;49.160;8.580;2022-11-11T08:16:39;8.10;99.90
46490;DHT22;32204;49.160;8.580;2022-11-11T08:19:04;8.30;99.90
46490;DHT22;32204;49.160;8.580;2022-11-11T08:21:30;8.30;99.90
46490;DHT22;32204;49.160;8.580;2022-11-11T08:23:55;8.20;99.90
46490;DHT22;32204;49.160;8.580;2022-11-11T08:26:22;8.40;99.90
46490;DHT22;32204;49.160;8.580;2022-11-11T08:28:51;8.50;99.90
46490;DHT22;32204;49.160;8.580;2022-11-11T08:31:17;8.60;99.90
46490;DHT22;32204;49.160;8.580;2022-11-11T08:33:42;8.80;99.90
46490;DHT22;32204;49.160;8.580;2022-11-11T08:36:08;8.60;99.90
46490;DHT22;32204;49.160;8.580;2022-11-11T08:38:36;8.40;99.90
46490;DHT22;32204;49.160;8.580;2022-11-11T08:41:03;8.10;99.90
46490;DHT22;32204;49.160;8.580;2022-11-11T08:43:29;7.90;99.90
46490;DHT22;32204;49.160;8.580;2022-11-11T08:45:58;7.70;99.90
46490;DHT22;32204;49.160;8.580;2022-11-11T08:48:24;7.70;99.90
46490;DHT22;32204;49.160;8.580;2022-11-11T08:50:51;7.90;99.90
46490;DHT22;32204;49.160;8.580;2022-11-11T08:53:17;8.00;99.90
46490;DHT22;32204;49.160;8.580;2022-11-11T08:55:43;7.80;99.90
46490;DHT22;32204;49.160;8.580;2022-11-11T08:58:09;7.80;99.90
46490;DHT22;32204;49.160;8.580;2022-11-11T09:00:35;7.80;99.90
46490;DHT22;32204;49.160;8.580;2022-11-11T09:03:02;8.00;99.90
46490;DHT22;32204;49.160;8.580;2022-11-11T09:05:28;8.20;99.90
46490;DHT22;32204;49.160;8.580;2022-11-11T09:07:54;7.90;99.90
46490;DHT22;32204;49.160;8.580;2022-11-11T09:10:19;8.00;99.90
46490;DHT22;32204;49.160;8.580;2022-11-11T09:12:45;8.30;99.90
46490;DHT22;32204;49.160;8.580;2022-11-11T09:15:11;8.30;99.90
46490;DHT22;32204;49.160;8.580;2022-11-11T09:17:36;8.30;99.90
46490;DHT22;32204;49.160;8.580;2022-11-11T09:20:02;8.40;99.90
46490;DHT22;32204;49.160;8.580;2022-11-11T09:22:28;8.50;99.90
46490;DHT22;32204;49.160;8.580;2022-11-11T09:24:54;8.70;99.90
46490;DHT22;32204;49.160;8.580;2022-11-11T09:27:21;8.70;99.90
46490;DHT22;32204;49.160;8.580;2022-11-11T09:29:47;8.50;99.90
46490;DHT22;32204;49.160;8.580;2022-11-11T09:32:12;8.70;99.90
46490;DHT22;32204;49.160;8.580;2022-11-11T09:34:38;8.90;99.90
46490;DHT22;32204;49.160;8.580;2022-11-11T09:37:03;9.00;99.90
46490;DHT22;32204;49.160;8.580;2022-11-11T09:39:29;9.10;99.90
46490;DHT22;32204;49.160;8.580;2022-11-11T09:42:22;9.30;99.90
46490;DHT22;32204;49.160;8.580;2022-11-11T09:45:16;9.10;99.90
46490;DHT22;32204;49.160;8.580;2022-11-11T09:50:21;9.00;99.90
46490;DHT22;32204;49.160;8.580;2022-11-11T09:55:35;9.30;99.90
46490;DHT22;32204;49.160;8.580;2022-11-11T09:58:21;9.20;99.90
46490;DHT22;32204;49.160;8.580;2022-11-11T10:01:07;9.40;99.90
46490;DHT22;32204;49.160;8.580;2022-11-11T10:03:38;9.30;99.90
46490;DHT22;32204;49.160;8.580;2022-11-11T10:06:18;9.40;99.90
46490;DHT22;32204;49.160;8.580;2022-11-11T10:08:58;9.40;99.90
46490;DHT22;32204;49.160;8.580;2022-11-11T10:13:55;9.70;99.90
46490;DHT22;32204;49.160;8.580;2022-11-11T10:16:57;9.70;99.90
46490;DHT22;32204;49.160;8.580;2022-11-11T10:22:21;9.90;99.90
46490;DHT22;32204;49.160;8.580;2022-11-11T10:27:28;10.00;99.90
46490;DHT22;32204;49.160;8.580;2022-11-11T10:29:55;10.00;99.90
46490;DHT22;32204;49.160;8.580;2022-11-11T10:32:26;9.70;99.90
46490;DHT22;32204;49.160;8.580;2022-11-11T10:34:53;9.50;99.90
46490;DHT22;32204;49.160;8.580;2022-11-11T10:37:34;9.60;99.90
46490;DHT22;32204;49.160;8.580;2022-11-11T10:40:21;9.50;99.90
46490;DHT22;32204;49.160;8.580;2022-11-11T10:42:47;9.60;99.90
46490;DHT22;32204;49.160;8.580;2022-11-11T10:45:46;9.90;99.90
46490;DHT22;32204;49.160;8.580;2022-11-11T10:48:22;10.10;99.90
46490;DHT22;32204;49.160;8.580;2022-11-11T10:50:55;10.10;99.90
46490;DHT22;32204;49.160;8.580;2022-11-11T10:53:56;10.30;99.90
46490;DHT22;32204;49.160;8.580;2022-11-11T10:57:00;10.30;99.90
46490;DHT22;32204;49.160;8.580;2022-11-11T10:59:30;9.90;99.90
46490;DHT22;32204;49.160;8.580;2022-11-11T11:02:08;9.70;99.90
46490;DHT22;32204;49.160;8.580;2022-11-11T11:04:51;9.70;99.90
46490;DHT22;32204;49.160;8.580;2022-11-11T11:07:25;9.80;99.90
46490;DHT22;32204;49.160;8.580;2022-11-11T11:10:06;9.70;99.90
46490;DHT22;32204;49.160;8.580;2022-11-11T11:15:22;9.80;99.90
46490;DHT22;32204;49.160;8.580;2022-11-11T11:20:57;10.30;99.90
46490;DHT22;32204;49.160;8.580;2022-11-11T11:23:52;10.50;99.90
46490;DHT22;32204;49.160;8.580;2022-11-11T11:26:18;10.90;99.90
46490;DHT22;32204;49.160;8.580;2022-11-11T11:28:58;11.00;92.80
46490;DHT22;32204;49.160;8.580;2022-11-11T11:31:38;10.70;90.30
46490;DHT22;32204;49.160;8.580;2022-11-11T11:34:04;10.50;99.90
46490;DHT22;32204;49.160;8.580;2022-11-11T11:36:30;10.60;99.90
46490;DHT22;32204;49.160;8.580;2022-11-11T11:38:56;10.70;99.90
46490;DHT22;32204;49.160;8.580;2022-11-11T11:41:40;10.90;99.90
46490;DHT22;32204;49.160;8.580;2022-11-11T11:44:26;11.00;99.90
46490;DHT22;32204;49.160;8.580;2022-11-11T11:46:57;11.30;99.90
46490;DHT22;32204;49.160;8.580;2022-11-11T11:52:18;11.10;92.00
46490;DHT22;32204;49.160;8.580;2022-11-11T11:54:59;11.30;88.40
46490;DHT22;32204;49.160;8.580;2022-11-11T11:57:34;11.30;16.80
46490;DHT22;32204;49.160;8.580;2022-11-11T12:00:13;11.40;33.80
46490;DHT22;32204;49.160;8.580;2022-11-11T12:05:55;11.60;1.00
46490;DHT22;32204;49.160;8.580;2022-11-11T12:08:34;11.70;1.00
46490;DHT22;32204;49.160;8.580;2022-11-11T12:19:18;11.30;1.00
46490;DHT22;32204;49.160;8.580;2022-11-11T12:28:01;11.70;1.00
46490;DHT22;32204;49.160;8.580;2022-11-11T12:30:32;11.80;1.00
46490;DHT22;32204;49.160;8.580;2022-11-11T12:33:05;11.70;1.00
46490;DHT22;32204;49.160;8.580;2022-11-11T12:38:57;12.00;1.00
46490;DHT22;32204;49.160;8.580;2022-11-11T12:44:08;11.90;1.00
46490;DHT22;32204;49.160;8.580;2022-11-11T12:53:31;12.20;1.00
46490;DHT22;32204;49.160;8.580;2022-11-11T12:58:37;12.30;1.00
46490;DHT22;32204;49.160;8.580;2022-11-11T13:01:22;12.40;1.00
46490;DHT22;32204;49.160;8.580;2022-11-11T13:04:01;12.50;1.00
46490;DHT22;32204;49.160;8.580;2022-11-11T13:07:00;12.50;1.00
46490;DHT22;32204;49.160;8.580;2022-11-11T13:12:30;12.40;1.00
46490;DHT22;32204;49.160;8.580;2022-11-11T13:15:25;12.40;1.00
46490;DHT22;32204;49.160;8.580;2022-11-11T13:17:51;12.50;1.00
46490;DHT22;32204;49.160;8.580;2022-11-11T13:22:59;12.40;1.00
46490;DHT22;32204;49.160;8.580;2022-11-11T13:25:28;12.30;11.20
46490;DHT22;32204;49.160;8.580;2022-11-11T13:28:12;12.40;19.70
46490;DHT22;32204;49.160;8.580;2022-11-11T13:31:10;12.40;1.00
46490;DHT22;32204;49.160;8.580;2022-11-11T13:33:45;12.10;1.00
46490;DHT22;32204;49.160;8.580;2022-11-11T13:36:15;12.00;19.00
46490;DHT22;32204;49.160;8.580;2022-11-11T13:41:09;12.10;4.10
46490;DHT22;32204;49.160;8.580;2022-11-11T13:43:42;12.00;3.40
46490;DHT22;32204;49.160;8.580;2022-11-11T13:46:37;11.80;25.80
46490;DHT22;32204;49.160;8.580;2022-11-11T13:49:07;11.90;77.60
46490;DHT22;32204;49.160;8.580;2022-11-11T13:51:41;12.00;38.10
46490;DHT22;32204;49.160;8.580;2022-11-11T13:57:03;11.70;81.00
46490;DHT22;32204;49.160;8.580;2022-11-11T13:59:37;11.70;93.80
46490;DHT22;32204;49.160;8.580;2022-11-11T14:02:30;11.60;97.30
46490;DHT22;32204;49.160;8.580;2022-11-11T14:12:52;11.20;99.90
46490;DHT22;32204;49.160;8.580;2022-11-11T14:15:40;11.10;99.90
46490;DHT22;32204;49.160;8.580;2022-11-11T14:20:54;10.80;99.90
46490;DHT22;32204;49.160;8.580;2022-11-11T14:26:21;10.40;99.90
46490;DHT22;32204;49.160;8.580;2022-11-11T14:28:50;10.50;99.90
46490;DHT22;32204;49.160;8.580;2022-11-11T14:34:12;10.40;99.90
46490;DHT22;32204;49.160;8.580;2022-11-11T14:41:58;10.30;99.90
46490;DHT22;32204;49.160;8.580;2022-11-11T14:52:22;9.90;99.90
46490;DHT22;32204;49.160;8.580;2022-11-11T14:57:34;9.90;99.90
46490;DHT22;32204;49.160;8.580;2022-11-11T15:00:04;9.90;99.90
46490;DHT22;32204;49.160;8.580;2022-11-11T15:02:37;10.10;99.90
46490;DHT22;32204;49.160;8.580;2022-11-11T15:05:06;10.30;99.90
46490;DHT22;32204;49.160;8.580;2022-11-11T15:10:53;10.30;99.90
46490;DHT22;32204;49.160;8.580;2022-11-11T15:13:44;10.30;99.90
46490;DHT22;32204;49.160;8.580;2022-11-11T15:16:26;10.20;99.90
46490;DHT22;32204;49.160;8.580;2022-11-11T15:19:17;10.30;99.90
46490;DHT22;32204;49.160;8.580;2022-11-11T15:27:35;10.30;99.90
46490;DHT22;32204;49.160;8.580;2022-11-11T15:30:20;10.30;99.90
46490;DHT22;32204;49.160;8.580;2022-11-11T15:33:02;10.20;99.90
46490;DHT22;32204;49.160;8.580;2022-11-11T15:35:55;10.00;99.90
46490;DHT22;32204;49.160;8.580;2022-11-11T15:38:23;9.70;99.90
46490;DHT22;32204;49.160;8.580;2022-11-11T15:40:55;9.70;99.90
46490;DHT22;32204;49.160;8.580;2022-11-11T15:43:30;9.80;99.90
46490;DHT22;32204;49.160;8.580;2022-11-11T15:46:00;9.70;99.90
46490;DHT22;32204;49.160;8.580;2022-11-11T15:48:27;9.60;99.90
46490;DHT22;32204;49.160;8.580;2022-11-11T15:50:54;9.60;99.90
46490;DHT22;32204;49.160;8.580;2022-11-11T15:53:25;9.70;99.90
46490;DHT22;32204;49.160;8.580;2022-11-11T15:55:53;9.80;99.90
46490;DHT22;32204;49.160;8.580;2022-11-11T15:58:28;9.80;99.90
46490;DHT22;32204;49.160;8.580;2022-11-11T16:00:54;10.00;99.90
46490;DHT22;32204;49.160;8.580;2022-11-11T16:03:33;9.90;99.90
46490;DHT22;32204;49.160;8.580;2022-11-11T16:06:02;9.90;99.90
46490;DHT22;32204;49.160;8.580;2022-11-11T16:08:29;10.00;99.90
46490;DHT22;32204;49.160;8.580;2022-11-11T16:10:57;10.00;99.90
46490;DHT22;32204;49.160;8.580;2022-11-11T16:13:46;10.00;99.90
46490;DHT22;32204;49.160;8.580;2022-11-11T16:16:27;9.90;99.90
46490;DHT22;32204;49.160;8.580;2022-11-11T16:19:07;9.80;99.90
46490;DHT22;32204;49.160;8.580;2022-11-11T16:21:43;9.80;99.90
46490;DHT22;32204;49.160;8.580;2022-11-11T16:24:25;9.80;99.90
46490;DHT22;32204;49.160;8.580;2022-11-11T16:26:51;9.70;99.90
46490;DHT22;32204;49.160;8.580;2022-11-11T16:29:18;9.70;99.90
46490;DHT22;32204;49.160;8.580;2022-11-11T16:31:44;9.80;99.90
46490;DHT22;32204;49.160;8.580;2022-11-11T16:37:01;9.90;99.90
46490;DHT22;32204;49.160;8.580;2022-11-11T16:39:28;9.90;99.90
46490;DHT22;32204;49.160;8.580;2022-11-11T16:41:55;9.90;99.90
46490;DHT22;32204;49.160;8.580;2022-11-11T16:46:52;9.70;99.90
46490;DHT22;32204;49.160;8.580;2022-11-11T16:52:03;9.50;99.90
46490;DHT22;32204;49.160;8.580;2022-11-11T16:54:36;9.60;99.90
46490;DHT22;32204;49.160;8.580;2022-11-11T16:57:02;9.80;99.90
46490;DHT22;32204;49.160;8.580;2022-11-11T16:59:39;9.80;99.90
46490;DHT22;32204;49.160;8.580;2022-11-11T17:02:19;9.70;99.90
46490;DHT22;32204;49.160;8.580;2022-11-11T17:04:47;9.60;99.90
46490;DHT22;32204;49.160;8.580;2022-11-11T17:07:36;9.60;99.90
46490;DHT22;32204;49.160;8.580;2022-11-11T17:10:13;9.50;99.90
46490;DHT22;32204;49.160;8.580;2022-11-11T17:12:39;9.50;99.90
46490;DHT22;32204;49.160;8.580;2022-11-11T17:15:11;9.40;99.90
46490;DHT22;32204;49.160;8.580;2022-11-11T17:17:38;9.30;99.90
46490;DHT22;32204;49.160;8.580;2022-11-11T17:20:17;9.40;99.90
46490;DHT22;32204;49.160;8.580;2022-11-11T17:22:51;9.40;99.90
46490;DHT22;32204;49.160;8.580;2022-11-11T17:25:20;9.40;99.90
46490;DHT22;32204;49.160;8.580;2022-11-11T17:27:45;9.50;99.90
46490;DHT22;32204;49.160;8.580;2022-11-11T17:30:12;9.50;99.90
46490;DHT22;32204;49.160;8.580;2022-11-11T17:32:38;9.30;99.90
46490;DHT22;32204;49.160;8.580;2022-11-11T17:35:03;9.40;99.90
46490;DHT22;32204;49.160;8.580;2022-11-11T17:37:35;9.50;99.90
46490;DHT22;32204;49.160;8.580;2022-11-11T17:40:09;9.50;99.90
46490;DHT22;32204;49.160;8.580;2022-11-11T17:42:35;9.40;99.90
46490;DHT22;32204;49.160;8.580;2022-11-11T17:45:02;9.40;99.90
46490;DHT22;32204;49.160;8.580;2022-11-11T17:47:28;9.40;99.90
46490;DHT22;32204;49.160;8.580;2022-11-11T17:49:54;9.50;99.90
46490;DHT22;32204;49.160;8.580;2022-11-11T17:52:19;9.30;99.90
46490;DHT22;32204;49.160;8.580;2022-11-11T17:54:45;9.20;99.90
46490;DHT22;32204;49.160;8.580;2022-11-11T17:57:10;9.30;99.90
46490;DHT22;32204;49.160;8.580;2022-11-11T17:59:36;9.50;99.90
46490;DHT22;32204;49.160;8.580;2022-11-11T18:02:02;9.40;99.90
46490;DHT22;32204;49.160;8.580;2022-11-11T18:04:28;9.20;99.90
46490;DHT22;32204;49.160;8.580;2022-11-11T18:06:53;9.30;99.90
46490;DHT22;32204;49.160;8.580;2022-11-11T18:09:19;9.50;99.90
46490;DHT22;32204;49.160;8.580;2022-11-11T18:11:45;9.60;99.90
46490;DHT22;32204;49.160;8.580;2022-11-11T18:14:10;9.60;99.90
46490;DHT22;32204;49.160;8.580;2022-11-11T18:16:36;9.60;99.90
46490;DHT22;32204;49.160;8.580;2022-11-11T18:19:03;9.60;99.90
46490;DHT22;32204;49.160;8.580;2022-11-11T18:21:30;9.70;99.90
46490;DHT22;32204;49.160;8.580;2022-11-11T18:23:55;9.80;99.90